sensor_id;sensor_type;location;lat;lon;timestamp;P1;durP1;ratioP1;P2;durP2;ratioP2
75894;SDS011;64573;50.328;15.014;2022-11-15T00:00:52;68.70;;;32.55;;
75894;SDS011;64573;50.328;15.014;2022-11-15T00:03:22;69.60;;;31.58;;
75894;SDS011;64573;50.328;15.014;2022-11-15T00:05:50;70.65;;;31.73;;
75894;SDS011;64573;50.328;15.014;2022-11-15T00:08:15;69.15;;;30.77;;
75894;SDS011;64573;50.328;15.014;2022-11-15T00:10:41;64.63;;;30.92;;
75894;SDS011;64573;50.328;15.014;2022-11-15T00:13:07;71.30;;;32.58;;
75894;SDS011;64573;50.328;15.014;2022-11-15T00:18:03;73.28;;;30.77;;
75894;SDS011;64573;50.328;15.014;2022-11-15T00:20:29;65.82;;;31.13;;
75894;SDS011;64573;50.328;15.014;2022-11-15T00:22:54;74.10;;;32.83;;
75894;SDS011;64573;50.328;15.014;2022-11-15T00:25:20;61.28;;;30.73;;
75894;SDS011;64573;50.328;15.014;2022-11-15T00:27:45;73.82;;;32.13;;
75894;SDS011;64573;50.328;15.014;2022-11-15T00:30:11;71.65;;;31.83;;
75894;SDS011;64573;50.328;15.014;2022-11-15T00:32:37;69.18;;;30.70;;
75894;SDS011;64573;50.328;15.014;2022-11-15T00:35:02;65.45;;;31.00;;
75894;SDS011;64573;50.328;15.014;2022-11-15T00:37:28;78.20;;;33.05;;
75894;SDS011;64573;50.328;15.014;2022-11-15T00:39:53;70.28;;;30.35;;
75894;SDS011;64573;50.328;15.014;2022-11-15T00:42:19;83.95;;;34.13;;
75894;SDS011;64573;50.328;15.014;2022-11-15T00:44:44;88.28;;;35.42;;
75894;SDS011;64573;50.328;15.014;2022-11-15T00:47:09;76.47;;;34.10;;
75894;SDS011;64573;50.328;15.014;2022-11-15T00:49:35;76.47;;;33.13;;
75894;SDS011;64573;50.328;15.014;2022-11-15T00:52:00;67.65;;;31.38;;
75894;SDS011;64573;50.328;15.014;2022-11-15T00:54:26;66.45;;;30.77;;
75894;SDS011;64573;50.328;15.014;2022-11-15T00:56:51;76.45;;;34.90;;
75894;SDS011;64573;50.328;15.014;2022-11-15T00:59:16;86.07;;;35.40;;
75894;SDS011;64573;50.328;15.014;2022-11-15T01:01:41;89.95;;;36.70;;
75894;SDS011;64573;50.328;15.014;2022-11-15T01:04:07;98.88;;;36.90;;
75894;SDS011;64573;50.328;15.014;2022-11-15T01:06:32;90.05;;;35.00;;
75894;SDS011;64573;50.328;15.014;2022-11-15T01:08:58;101.13;;;37.78;;
75894;SDS011;64573;50.328;15.014;2022-11-15T01:11:23;104.93;;;39.50;;
75894;SDS011;64573;50.328;15.014;2022-11-15T01:13:48;99.50;;;38.47;;
75894;SDS011;64573;50.328;15.014;2022-11-15T01:16:17;119.50;;;42.00;;
75894;SDS011;64573;50.328;15.014;2022-11-15T01:18:44;115.20;;;41.38;;
75894;SDS011;64573;50.328;15.014;2022-11-15T01:21:11;115.82;;;40.40;;
75894;SDS011;64573;50.328;15.014;2022-11-15T01:23:39;104.45;;;38.35;;
75894;SDS011;64573;50.328;15.014;2022-11-15T01:26:05;118.28;;;41.88;;
75894;SDS011;64573;50.328;15.014;2022-11-15T01:28:32;111.00;;;42.70;;
75894;SDS011;64573;50.328;15.014;2022-11-15T01:31:03;112.80;;;43.38;;
75894;SDS011;64573;50.328;15.014;2022-11-15T01:33:33;110.80;;;39.30;;
75894;SDS011;64573;50.328;15.014;2022-11-15T01:36:08;104.60;;;38.03;;
75894;SDS011;64573;50.328;15.014;2022-11-15T01:38:55;118.22;;;41.20;;
75894;SDS011;64573;50.328;15.014;2022-11-15T01:41:22;130.30;;;45.55;;
75894;SDS011;64573;50.328;15.014;2022-11-15T01:43:51;128.18;;;46.33;;
75894;SDS011;64573;50.328;15.014;2022-11-15T01:48:50;126.65;;;43.40;;
75894;SDS011;64573;50.328;15.014;2022-11-15T01:51:18;93.78;;;36.58;;
75894;SDS011;64573;50.328;15.014;2022-11-15T01:53:45;89.28;;;34.83;;
75894;SDS011;64573;50.328;15.014;2022-11-15T01:56:22;116.63;;;42.17;;
75894;SDS011;64573;50.328;15.014;2022-11-15T01:58:51;138.32;;;46.70;;
75894;SDS011;64573;50.328;15.014;2022-11-15T02:01:20;162.82;;;50.40;;
75894;SDS011;64573;50.328;15.014;2022-11-15T02:04:20;160.15;;;51.10;;
75894;SDS011;64573;50.328;15.014;2022-11-15T02:06:41;122.50;;;42.88;;
75894;SDS011;64573;50.328;15.014;2022-11-15T02:09:07;128.25;;;46.60;;
75894;SDS011;64573;50.328;15.014;2022-11-15T02:11:32;138.40;;;42.15;;
75894;SDS011;64573;50.328;15.014;2022-11-15T02:13:58;144.57;;;45.28;;
75894;SDS011;64573;50.328;15.014;2022-11-15T02:32:47;140.40;;;45.33;;
75894;SDS011;64573;50.328;15.014;2022-11-15T02:38:39;137.13;;;42.63;;
75894;SDS011;64573;50.328;15.014;2022-11-15T02:41:23;127.78;;;39.92;;
75894;SDS011;64573;50.328;15.014;2022-11-15T02:44:00;132.15;;;40.13;;
75894;SDS011;64573;50.328;15.014;2022-11-15T02:49:22;123.70;;;39.90;;
75894;SDS011;64573;50.328;15.014;2022-11-15T02:51:52;141.68;;;43.75;;
75894;SDS011;64573;50.328;15.014;2022-11-15T02:54:30;143.55;;;43.75;;
75894;SDS011;64573;50.328;15.014;2022-11-15T02:57:04;129.60;;;42.03;;
75894;SDS011;64573;50.328;15.014;2022-11-15T02:59:57;145.85;;;45.25;;
75894;SDS011;64573;50.328;15.014;2022-11-15T03:04:58;160.05;;;48.88;;
75894;SDS011;64573;50.328;15.014;2022-11-15T03:16:03;162.65;;;49.70;;
75894;SDS011;64573;50.328;15.014;2022-11-15T03:18:33;162.73;;;49.17;;
75894;SDS011;64573;50.328;15.014;2022-11-15T03:23:31;150.38;;;46.55;;
75894;SDS011;64573;50.328;15.014;2022-11-15T03:25:58;140.43;;;45.17;;
75894;SDS011;64573;50.328;15.014;2022-11-15T03:28:28;147.10;;;40.30;;
75894;SDS011;64573;50.328;15.014;2022-11-15T03:30:58;130.80;;;37.47;;
75894;SDS011;64573;50.328;15.014;2022-11-15T03:33:26;115.07;;;37.38;;
75894;SDS011;64573;50.328;15.014;2022-11-15T03:35:54;107.88;;;38.60;;
75894;SDS011;64573;50.328;15.014;2022-11-15T03:38:26;119.82;;;40.17;;
75894;SDS011;64573;50.328;15.014;2022-11-15T03:45:54;136.85;;;42.97;;
75894;SDS011;64573;50.328;15.014;2022-11-15T03:48:27;138.50;;;40.13;;
75894;SDS011;64573;50.328;15.014;2022-11-15T03:50:59;147.10;;;40.78;;
75894;SDS011;64573;50.328;15.014;2022-11-15T03:53:24;148.35;;;43.67;;
75894;SDS011;64573;50.328;15.014;2022-11-15T03:55:50;153.43;;;45.38;;
75894;SDS011;64573;50.328;15.014;2022-11-15T03:58:15;179.30;;;48.50;;
75894;SDS011;64573;50.328;15.014;2022-11-15T04:00:41;182.70;;;47.67;;
75894;SDS011;64573;50.328;15.014;2022-11-15T04:03:06;182.43;;;48.38;;
75894;SDS011;64573;50.328;15.014;2022-11-15T04:05:32;186.10;;;49.17;;
75894;SDS011;64573;50.328;15.014;2022-11-15T04:07:58;186.35;;;50.40;;
75894;SDS011;64573;50.328;15.014;2022-11-15T04:10:23;158.68;;;44.22;;
75894;SDS011;64573;50.328;15.014;2022-11-15T04:12:49;171.57;;;44.72;;
75894;SDS011;64573;50.328;15.014;2022-11-15T04:15:18;141.05;;;40.05;;
75894;SDS011;64573;50.328;15.014;2022-11-15T04:17:46;135.57;;;37.13;;
75894;SDS011;64573;50.328;15.014;2022-11-15T04:20:18;106.15;;;35.47;;
75894;SDS011;64573;50.328;15.014;2022-11-15T04:23:07;118.25;;;36.95;;
75894;SDS011;64573;50.328;15.014;2022-11-15T04:25:55;115.80;;;37.55;;
75894;SDS011;64573;50.328;15.014;2022-11-15T04:28:21;118.35;;;37.58;;
75894;SDS011;64573;50.328;15.014;2022-11-15T04:30:47;134.45;;;39.05;;
75894;SDS011;64573;50.328;15.014;2022-11-15T04:33:13;131.35;;;39.45;;
75894;SDS011;64573;50.328;15.014;2022-11-15T04:35:38;140.88;;;38.25;;
75894;SDS011;64573;50.328;15.014;2022-11-15T04:38:05;143.60;;;38.22;;
75894;SDS011;64573;50.328;15.014;2022-11-15T04:40:33;149.45;;;38.22;;
75894;SDS011;64573;50.328;15.014;2022-11-15T04:42:58;137.82;;;40.40;;
75894;SDS011;64573;50.328;15.014;2022-11-15T04:45:23;165.90;;;48.20;;
75894;SDS011;64573;50.328;15.014;2022-11-15T04:47:49;188.40;;;50.33;;
75894;SDS011;64573;50.328;15.014;2022-11-15T04:50:15;215.40;;;57.72;;
75894;SDS011;64573;50.328;15.014;2022-11-15T04:55:09;197.98;;;49.70;;
75894;SDS011;64573;50.328;15.014;2022-11-15T04:57:35;182.07;;;42.92;;
75894;SDS011;64573;50.328;15.014;2022-11-15T05:00:02;179.25;;;47.42;;
75894;SDS011;64573;50.328;15.014;2022-11-15T05:02:30;204.35;;;53.97;;
75894;SDS011;64573;50.328;15.014;2022-11-15T05:05:15;218.63;;;58.00;;
75894;SDS011;64573;50.328;15.014;2022-11-15T05:07:40;253.70;;;65.15;;
75894;SDS011;64573;50.328;15.014;2022-11-15T05:10:06;250.27;;;59.45;;
75894;SDS011;64573;50.328;15.014;2022-11-15T05:12:31;208.45;;;51.33;;
75894;SDS011;64573;50.328;15.014;2022-11-15T05:14:57;213.82;;;50.38;;
75894;SDS011;64573;50.328;15.014;2022-11-15T05:17:22;214.00;;;55.53;;
75894;SDS011;64573;50.328;15.014;2022-11-15T05:19:47;204.38;;;51.42;;
75894;SDS011;64573;50.328;15.014;2022-11-15T05:22:13;232.55;;;55.75;;
75894;SDS011;64573;50.328;15.014;2022-11-15T05:24:38;187.27;;;51.17;;
75894;SDS011;64573;50.328;15.014;2022-11-15T05:27:03;238.00;;;51.10;;
75894;SDS011;64573;50.328;15.014;2022-11-15T05:29:29;211.55;;;52.00;;
75894;SDS011;64573;50.328;15.014;2022-11-15T05:31:54;218.88;;;53.05;;
75894;SDS011;64573;50.328;15.014;2022-11-15T05:34:19;224.55;;;51.80;;
75894;SDS011;64573;50.328;15.014;2022-11-15T05:36:47;249.30;;;57.88;;
75894;SDS011;64573;50.328;15.014;2022-11-15T05:39:14;268.85;;;57.47;;
75894;SDS011;64573;50.328;15.014;2022-11-15T05:44:09;246.82;;;55.00;;
75894;SDS011;64573;50.328;15.014;2022-11-15T05:46:36;266.23;;;57.50;;
75894;SDS011;64573;50.328;15.014;2022-11-15T05:49:04;350.65;;;59.35;;
75894;SDS011;64573;50.328;15.014;2022-11-15T05:51:35;324.80;;;54.97;;
75894;SDS011;64573;50.328;15.014;2022-11-15T05:54:00;375.48;;;55.97;;
75894;SDS011;64573;50.328;15.014;2022-11-15T05:56:26;477.85;;;59.85;;
75894;SDS011;64573;50.328;15.014;2022-11-15T05:58:53;506.42;;;59.17;;
75894;SDS011;64573;50.328;15.014;2022-11-15T06:01:21;473.17;;;58.80;;
75894;SDS011;64573;50.328;15.014;2022-11-15T06:03:48;549.63;;;57.25;;
75894;SDS011;64573;50.328;15.014;2022-11-15T06:06:13;468.77;;;52.50;;
75894;SDS011;64573;50.328;15.014;2022-11-15T06:08:39;652.67;;;66.35;;
75894;SDS011;64573;50.328;15.014;2022-11-15T06:13:30;714.03;;;67.47;;
75894;SDS011;64573;50.328;15.014;2022-11-15T06:15:56;732.00;;;70.60;;
75894;SDS011;64573;50.328;15.014;2022-11-15T06:18:21;610.78;;;61.70;;
75894;SDS011;64573;50.328;15.014;2022-11-15T06:20:47;469.50;;;53.58;;
75894;SDS011;64573;50.328;15.014;2022-11-15T06:23:12;773.75;;;73.22;;
75894;SDS011;64573;50.328;15.014;2022-11-15T06:25:38;562.35;;;60.53;;
75894;SDS011;64573;50.328;15.014;2022-11-15T06:28:03;521.28;;;56.33;;
75894;SDS011;64573;50.328;15.014;2022-11-15T06:30:29;473.02;;;57.33;;
75894;SDS011;64573;50.328;15.014;2022-11-15T06:33:04;791.45;;;64.65;;
75894;SDS011;64573;50.328;15.014;2022-11-15T06:38:02;514.85;;;58.30;;
75894;SDS011;64573;50.328;15.014;2022-11-15T06:40:36;574.03;;;58.35;;
75894;SDS011;64573;50.328;15.014;2022-11-15T06:43:03;538.92;;;53.53;;
75894;SDS011;64573;50.328;15.014;2022-11-15T06:45:29;761.95;;;63.50;;
75894;SDS011;64573;50.328;15.014;2022-11-15T06:47:55;556.80;;;53.65;;
75894;SDS011;64573;50.328;15.014;2022-11-15T06:50:20;439.92;;;50.67;;
75894;SDS011;64573;50.328;15.014;2022-11-15T06:52:46;527.83;;;52.85;;
75894;SDS011;64573;50.328;15.014;2022-11-15T06:55:12;742.25;;;60.17;;
75894;SDS011;64573;50.328;15.014;2022-11-15T06:57:42;846.28;;;67.28;;
75894;SDS011;64573;50.328;15.014;2022-11-15T07:00:12;650.50;;;56.50;;
75894;SDS011;64573;50.328;15.014;2022-11-15T07:05:02;431.27;;;50.47;;
75894;SDS011;64573;50.328;15.014;2022-11-15T07:07:28;367.60;;;45.72;;
75894;SDS011;64573;50.328;15.014;2022-11-15T07:09:53;472.58;;;50.53;;
75894;SDS011;64573;50.328;15.014;2022-11-15T07:12:21;342.50;;;46.28;;
75894;SDS011;64573;50.328;15.014;2022-11-15T07:14:47;516.10;;;49.30;;
75894;SDS011;64573;50.328;15.014;2022-11-15T07:19:41;528.97;;;52.42;;
75894;SDS011;64573;50.328;15.014;2022-11-15T07:22:06;340.33;;;46.40;;
75894;SDS011;64573;50.328;15.014;2022-11-15T07:24:32;371.00;;;48.85;;
75894;SDS011;64573;50.328;15.014;2022-11-15T07:26:57;760.38;;;62.15;;
75894;SDS011;64573;50.328;15.014;2022-11-15T07:29:22;719.92;;;58.55;;
75894;SDS011;64573;50.328;15.014;2022-11-15T07:31:48;403.25;;;47.53;;
75894;SDS011;64573;50.328;15.014;2022-11-15T07:36:38;335.05;;;43.75;;
75894;SDS011;64573;50.328;15.014;2022-11-15T07:41:33;553.90;;;50.80;;
75894;SDS011;64573;50.328;15.014;2022-11-15T07:43:58;578.05;;;47.15;;
75894;SDS011;64573;50.328;15.014;2022-11-15T07:46:24;303.77;;;40.47;;
75894;SDS011;64573;50.328;15.014;2022-11-15T07:48:49;310.90;;;40.92;;
75894;SDS011;64573;50.328;15.014;2022-11-15T07:51:15;431.08;;;44.63;;
75894;SDS011;64573;50.328;15.014;2022-11-15T07:56:16;368.42;;;41.28;;
75894;SDS011;64573;50.328;15.014;2022-11-15T07:58:42;430.95;;;44.47;;
75894;SDS011;64573;50.328;15.014;2022-11-15T08:03:32;471.98;;;43.63;;
75894;SDS011;64573;50.328;15.014;2022-11-15T08:05:57;389.95;;;43.42;;
75894;SDS011;64573;50.328;15.014;2022-11-15T08:08:23;407.42;;;41.50;;
75894;SDS011;64573;50.328;15.014;2022-11-15T08:10:48;313.48;;;36.47;;
75894;SDS011;64573;50.328;15.014;2022-11-15T08:13:14;257.33;;;34.78;;
75894;SDS011;64573;50.328;15.014;2022-11-15T08:15:39;205.45;;;33.85;;
75894;SDS011;64573;50.328;15.014;2022-11-15T08:20:32;254.48;;;35.40;;
75894;SDS011;64573;50.328;15.014;2022-11-15T08:22:58;375.17;;;37.97;;
75894;SDS011;64573;50.328;15.014;2022-11-15T08:25:24;303.10;;;39.25;;
75894;SDS011;64573;50.328;15.014;2022-11-15T08:27:52;259.60;;;35.72;;
75894;SDS011;64573;50.328;15.014;2022-11-15T08:31:15;313.55;;;37.60;;
75894;SDS011;64573;50.328;15.014;2022-11-15T08:33:42;428.88;;;40.92;;
75894;SDS011;64573;50.328;15.014;2022-11-15T08:38:52;454.90;;;41.00;;
75894;SDS011;64573;50.328;15.014;2022-11-15T08:41:25;274.85;;;35.53;;
75894;SDS011;64573;50.328;15.014;2022-11-15T08:44:02;402.33;;;39.47;;
75894;SDS011;64573;50.328;15.014;2022-11-15T08:46:27;278.77;;;34.15;;
75894;SDS011;64573;50.328;15.014;2022-11-15T08:48:53;444.65;;;40.88;;
75894;SDS011;64573;50.328;15.014;2022-11-15T08:51:21;403.83;;;38.42;;
75894;SDS011;64573;50.328;15.014;2022-11-15T08:53:47;190.63;;;30.73;;
75894;SDS011;64573;50.328;15.014;2022-11-15T08:56:13;219.25;;;32.60;;
75894;SDS011;64573;50.328;15.014;2022-11-15T08:58:39;204.98;;;33.40;;
75894;SDS011;64573;50.328;15.014;2022-11-15T09:01:05;204.02;;;32.45;;
75894;SDS011;64573;50.328;15.014;2022-11-15T09:03:30;187.02;;;31.85;;
75894;SDS011;64573;50.328;15.014;2022-11-15T09:05:56;223.43;;;34.53;;
75894;SDS011;64573;50.328;15.014;2022-11-15T09:08:23;226.48;;;32.08;;
75894;SDS011;64573;50.328;15.014;2022-11-15T09:10:49;257.45;;;35.22;;
75894;SDS011;64573;50.328;15.014;2022-11-15T09:13:15;163.82;;;30.67;;
75894;SDS011;64573;50.328;15.014;2022-11-15T09:15:42;245.75;;;31.98;;
75894;SDS011;64573;50.328;15.014;2022-11-15T09:18:07;193.43;;;30.38;;
75894;SDS011;64573;50.328;15.014;2022-11-15T09:20:32;177.93;;;29.88;;
75894;SDS011;64573;50.328;15.014;2022-11-15T09:23:01;200.20;;;30.60;;
75894;SDS011;64573;50.328;15.014;2022-11-15T09:25:28;144.02;;;28.08;;
75894;SDS011;64573;50.328;15.014;2022-11-15T09:27:57;121.82;;;24.83;;
75894;SDS011;64573;50.328;15.014;2022-11-15T09:30:23;130.25;;;26.48;;
75894;SDS011;64573;50.328;15.014;2022-11-15T09:32:49;116.85;;;26.15;;
75894;SDS011;64573;50.328;15.014;2022-11-15T09:35:15;130.85;;;27.52;;
75894;SDS011;64573;50.328;15.014;2022-11-15T09:37:41;131.38;;;26.15;;
75894;SDS011;64573;50.328;15.014;2022-11-15T09:40:09;254.40;;;32.83;;
75894;SDS011;64573;50.328;15.014;2022-11-15T09:45:34;218.52;;;30.83;;
75894;SDS011;64573;50.328;15.014;2022-11-15T09:56:21;131.82;;;28.10;;
75894;SDS011;64573;50.328;15.014;2022-11-15T10:03:56;158.80;;;30.27;;
75894;SDS011;64573;50.328;15.014;2022-11-15T10:06:23;167.05;;;28.42;;
75894;SDS011;64573;50.328;15.014;2022-11-15T10:11:23;200.50;;;31.05;;
75894;SDS011;64573;50.328;15.014;2022-11-15T10:13:51;193.55;;;32.00;;
75894;SDS011;64573;50.328;15.014;2022-11-15T10:21:21;289.08;;;33.90;;
75894;SDS011;64573;50.328;15.014;2022-11-15T10:23:51;205.98;;;32.45;;
75894;SDS011;64573;50.328;15.014;2022-11-15T10:26:18;188.05;;;32.70;;
75894;SDS011;64573;50.328;15.014;2022-11-15T10:28:43;178.80;;;32.90;;
75894;SDS011;64573;50.328;15.014;2022-11-15T10:31:21;266.35;;;36.08;;
75894;SDS011;64573;50.328;15.014;2022-11-15T10:33:48;212.18;;;35.30;;
75894;SDS011;64573;50.328;15.014;2022-11-15T10:36:16;218.05;;;35.00;;
75894;SDS011;64573;50.328;15.014;2022-11-15T10:41:10;192.00;;;34.83;;
75894;SDS011;64573;50.328;15.014;2022-11-15T10:43:36;229.98;;;35.28;;
75894;SDS011;64573;50.328;15.014;2022-11-15T10:46:16;201.75;;;33.90;;
75894;SDS011;64573;50.328;15.014;2022-11-15T10:48:45;262.42;;;37.83;;
75894;SDS011;64573;50.328;15.014;2022-11-15T10:51:19;235.77;;;36.97;;
75894;SDS011;64573;50.328;15.014;2022-11-15T10:53:47;298.77;;;41.33;;
75894;SDS011;64573;50.328;15.014;2022-11-15T10:56:14;168.95;;;33.88;;
75894;SDS011;64573;50.328;15.014;2022-11-15T10:58:50;220.82;;;34.88;;
75894;SDS011;64573;50.328;15.014;2022-11-15T11:03:44;158.10;;;32.10;;
75894;SDS011;64573;50.328;15.014;2022-11-15T11:08:42;152.73;;;32.22;;
75894;SDS011;64573;50.328;15.014;2022-11-15T11:11:19;175.88;;;34.78;;
75894;SDS011;64573;50.328;15.014;2022-11-15T11:13:44;160.27;;;34.15;;
75894;SDS011;64573;50.328;15.014;2022-11-15T11:22:09;166.80;;;37.70;;
75894;SDS011;64573;50.328;15.014;2022-11-15T11:32:54;158.98;;;35.97;;
75894;SDS011;64573;50.328;15.014;2022-11-15T11:41:07;172.88;;;38.97;;
75894;SDS011;64573;50.328;15.014;2022-11-15T11:49:01;147.98;;;36.70;;
75894;SDS011;64573;50.328;15.014;2022-11-15T11:51:34;159.00;;;37.60;;
75894;SDS011;64573;50.328;15.014;2022-11-15T11:54:21;145.43;;;34.15;;
75894;SDS011;64573;50.328;15.014;2022-11-15T11:56:51;163.05;;;36.55;;
75894;SDS011;64573;50.328;15.014;2022-11-15T11:59:41;171.73;;;37.78;;
75894;SDS011;64573;50.328;15.014;2022-11-15T12:04:30;145.70;;;37.08;;
75894;SDS011;64573;50.328;15.014;2022-11-15T12:07:13;161.40;;;39.40;;
75894;SDS011;64573;50.328;15.014;2022-11-15T12:12:38;154.65;;;36.88;;
75894;SDS011;64573;50.328;15.014;2022-11-15T12:15:12;157.20;;;37.78;;
75894;SDS011;64573;50.328;15.014;2022-11-15T12:17:42;164.30;;;38.13;;
75894;SDS011;64573;50.328;15.014;2022-11-15T12:20:19;156.02;;;36.97;;
75894;SDS011;64573;50.328;15.014;2022-11-15T12:23:00;157.98;;;36.97;;
75894;SDS011;64573;50.328;15.014;2022-11-15T12:25:39;167.85;;;40.58;;
75894;SDS011;64573;50.328;15.014;2022-11-15T12:39:09;158.27;;;40.38;;
75894;SDS011;64573;50.328;15.014;2022-11-15T12:41:37;174.35;;;46.65;;
75894;SDS011;64573;50.328;15.014;2022-11-15T12:44:04;172.48;;;44.30;;
75894;SDS011;64573;50.328;15.014;2022-11-15T12:49:09;185.18;;;45.00;;
75894;SDS011;64573;50.328;15.014;2022-11-15T13:04:45;167.43;;;42.00;;
75894;SDS011;64573;50.328;15.014;2022-11-15T13:12:56;173.68;;;44.15;;
75894;SDS011;64573;50.328;15.014;2022-11-15T13:17:55;158.35;;;38.35;;
75894;SDS011;64573;50.328;15.014;2022-11-15T13:22:51;152.77;;;37.47;;
75894;SDS011;64573;50.328;15.014;2022-11-15T13:30:35;171.75;;;38.55;;
75894;SDS011;64573;50.328;15.014;2022-11-15T13:33:09;159.68;;;36.95;;
75894;SDS011;64573;50.328;15.014;2022-11-15T13:40:49;155.98;;;37.03;;
75894;SDS011;64573;50.328;15.014;2022-11-15T13:46:03;147.05;;;36.80;;
75894;SDS011;64573;50.328;15.014;2022-11-15T13:48:33;167.23;;;38.45;;
75894;SDS011;64573;50.328;15.014;2022-11-15T13:50:59;159.00;;;37.88;;
75894;SDS011;64573;50.328;15.014;2022-11-15T13:53:26;156.10;;;38.72;;
75894;SDS011;64573;50.328;15.014;2022-11-15T13:55:52;145.68;;;36.22;;
75894;SDS011;64573;50.328;15.014;2022-11-15T13:58:20;160.68;;;39.20;;
75894;SDS011;64573;50.328;15.014;2022-11-15T14:00:46;150.13;;;36.92;;
75894;SDS011;64573;50.328;15.014;2022-11-15T14:03:15;141.07;;;36.55;;
75894;SDS011;64573;50.328;15.014;2022-11-15T14:05:41;159.52;;;37.80;;
75894;SDS011;64573;50.328;15.014;2022-11-15T14:08:21;139.25;;;35.15;;
75894;SDS011;64573;50.328;15.014;2022-11-15T14:11:04;125.10;;;32.25;;
75894;SDS011;64573;50.328;15.014;2022-11-15T14:13:35;137.40;;;35.10;;
75894;SDS011;64573;50.328;15.014;2022-11-15T14:16:14;127.50;;;33.33;;
75894;SDS011;64573;50.328;15.014;2022-11-15T14:21:14;122.28;;;32.55;;
75894;SDS011;64573;50.328;15.014;2022-11-15T14:23:40;128.48;;;33.15;;
75894;SDS011;64573;50.328;15.014;2022-11-15T14:26:10;137.70;;;35.53;;
75894;SDS011;64573;50.328;15.014;2022-11-15T14:28:53;127.57;;;32.85;;
75894;SDS011;64573;50.328;15.014;2022-11-15T14:31:19;133.80;;;35.92;;
75894;SDS011;64573;50.328;15.014;2022-11-15T14:33:45;127.50;;;32.42;;
75894;SDS011;64573;50.328;15.014;2022-11-15T14:36:14;128.00;;;33.45;;
75894;SDS011;64573;50.328;15.014;2022-11-15T14:38:42;135.38;;;35.88;;
75894;SDS011;64573;50.328;15.014;2022-11-15T14:41:26;133.65;;;32.78;;
75894;SDS011;64573;50.328;15.014;2022-11-15T14:43:51;139.07;;;37.03;;
75894;SDS011;64573;50.328;15.014;2022-11-15T14:46:18;121.85;;;33.47;;
75894;SDS011;64573;50.328;15.014;2022-11-15T14:48:44;123.65;;;33.88;;
75894;SDS011;64573;50.328;15.014;2022-11-15T14:51:13;118.13;;;33.20;;
75894;SDS011;64573;50.328;15.014;2022-11-15T14:53:40;124.38;;;32.97;;
75894;SDS011;64573;50.328;15.014;2022-11-15T14:56:06;127.00;;;35.33;;
75894;SDS011;64573;50.328;15.014;2022-11-15T14:58:32;113.28;;;31.80;;
75894;SDS011;64573;50.328;15.014;2022-11-15T15:00:57;112.47;;;33.83;;
75894;SDS011;64573;50.328;15.014;2022-11-15T15:03:23;124.97;;;33.58;;
75894;SDS011;64573;50.328;15.014;2022-11-15T15:05:48;110.53;;;32.83;;
75894;SDS011;64573;50.328;15.014;2022-11-15T15:08:14;120.72;;;34.67;;
75894;SDS011;64573;50.328;15.014;2022-11-15T15:10:43;104.57;;;30.90;;
75894;SDS011;64573;50.328;15.014;2022-11-15T15:13:19;105.70;;;31.70;;
75894;SDS011;64573;50.328;15.014;2022-11-15T15:15:47;107.20;;;32.67;;
75894;SDS011;64573;50.328;15.014;2022-11-15T15:18:13;103.65;;;31.77;;
75894;SDS011;64573;50.328;15.014;2022-11-15T15:20:38;109.35;;;32.65;;
75894;SDS011;64573;50.328;15.014;2022-11-15T15:23:10;119.60;;;35.95;;
75894;SDS011;64573;50.328;15.014;2022-11-15T15:25:44;127.18;;;37.72;;
75894;SDS011;64573;50.328;15.014;2022-11-15T15:28:11;123.15;;;38.83;;
75894;SDS011;64573;50.328;15.014;2022-11-15T15:30:37;127.95;;;40.83;;
75894;SDS011;64573;50.328;15.014;2022-11-15T15:33:03;130.30;;;41.25;;
75894;SDS011;64573;50.328;15.014;2022-11-15T15:35:32;107.93;;;34.47;;
75894;SDS011;64573;50.328;15.014;2022-11-15T15:37:59;120.93;;;36.55;;
75894;SDS011;64573;50.328;15.014;2022-11-15T15:40:25;119.82;;;39.92;;
75894;SDS011;64573;50.328;15.014;2022-11-15T15:42:52;97.70;;;32.83;;
75894;SDS011;64573;50.328;15.014;2022-11-15T15:45:18;99.70;;;32.92;;
75894;SDS011;64573;50.328;15.014;2022-11-15T15:47:44;97.47;;;32.13;;
75894;SDS011;64573;50.328;15.014;2022-11-15T15:50:18;94.00;;;32.38;;
75894;SDS011;64573;50.328;15.014;2022-11-15T15:52:44;94.57;;;31.60;;
75894;SDS011;64573;50.328;15.014;2022-11-15T15:55:09;124.55;;;41.08;;
75894;SDS011;64573;50.328;15.014;2022-11-15T15:57:35;134.27;;;48.30;;
75894;SDS011;64573;50.328;15.014;2022-11-15T16:00:01;136.27;;;44.70;;
75894;SDS011;64573;50.328;15.014;2022-11-15T16:02:28;121.68;;;40.95;;
75894;SDS011;64573;50.328;15.014;2022-11-15T16:04:53;107.90;;;37.08;;
75894;SDS011;64573;50.328;15.014;2022-11-15T16:07:21;111.97;;;35.75;;
75894;SDS011;64573;50.328;15.014;2022-11-15T16:12:22;110.20;;;35.60;;
75894;SDS011;64573;50.328;15.014;2022-11-15T16:14:48;114.18;;;36.22;;
75894;SDS011;64573;50.328;15.014;2022-11-15T16:17:15;108.40;;;35.50;;
75894;SDS011;64573;50.328;15.014;2022-11-15T16:19:43;117.72;;;33.75;;
75894;SDS011;64573;50.328;15.014;2022-11-15T16:22:09;110.50;;;33.67;;
75894;SDS011;64573;50.328;15.014;2022-11-15T16:24:34;117.68;;;34.63;;
75894;SDS011;64573;50.328;15.014;2022-11-15T16:27:00;125.43;;;36.00;;
75894;SDS011;64573;50.328;15.014;2022-11-15T16:29:25;121.25;;;35.60;;
75894;SDS011;64573;50.328;15.014;2022-11-15T16:31:50;139.90;;;36.50;;
75894;SDS011;64573;50.328;15.014;2022-11-15T16:34:16;128.77;;;37.20;;
75894;SDS011;64573;50.328;15.014;2022-11-15T16:36:42;135.45;;;37.75;;
75894;SDS011;64573;50.328;15.014;2022-11-15T16:39:10;136.52;;;37.30;;
75894;SDS011;64573;50.328;15.014;2022-11-15T16:41:38;131.30;;;36.35;;
75894;SDS011;64573;50.328;15.014;2022-11-15T16:44:04;139.23;;;35.78;;
75894;SDS011;64573;50.328;15.014;2022-11-15T16:46:29;125.15;;;35.72;;
75894;SDS011;64573;50.328;15.014;2022-11-15T16:48:55;125.93;;;35.33;;
75894;SDS011;64573;50.328;15.014;2022-11-15T16:53:46;122.25;;;33.60;;
75894;SDS011;64573;50.328;15.014;2022-11-15T16:56:26;118.78;;;32.83;;
75894;SDS011;64573;50.328;15.014;2022-11-15T16:58:53;113.03;;;33.03;;
75894;SDS011;64573;50.328;15.014;2022-11-15T17:01:32;112.47;;;32.53;;
75894;SDS011;64573;50.328;15.014;2022-11-15T17:03:59;107.13;;;32.50;;
75894;SDS011;64573;50.328;15.014;2022-11-15T17:06:37;111.38;;;33.05;;
75894;SDS011;64573;50.328;15.014;2022-11-15T17:09:13;116.25;;;32.90;;
75894;SDS011;64573;50.328;15.014;2022-11-15T17:11:40;118.07;;;33.03;;
75894;SDS011;64573;50.328;15.014;2022-11-15T17:14:06;107.15;;;32.83;;
75894;SDS011;64573;50.328;15.014;2022-11-15T17:16:31;119.72;;;34.30;;
75894;SDS011;64573;50.328;15.014;2022-11-15T17:18:58;119.15;;;33.50;;
75894;SDS011;64573;50.328;15.014;2022-11-15T17:21:24;109.93;;;32.50;;